createdAt,value
2022-11-18T00:01:23.593Z,7.79
2022-11-18T00:03:53.474Z,7.84
2022-11-18T00:06:24.452Z,7.94
2022-11-18T00:08:53.637Z,7.97
2022-11-18T00:11:43.335Z,8.03
2022-11-18T00:14:21.556Z,8.04
2022-11-18T00:16:54.686Z,8.07
2022-11-18T00:19:26.551Z,8.09
2022-11-18T00:21:55.680Z,8.10
2022-11-18T00:24:24.920Z,8.12
2022-11-18T00:26:55.448Z,8.12
2022-11-18T00:29:28.259Z,8.13
2022-11-18T00:31:57.160Z,8.13
2022-11-18T00:34:26.576Z,8.15
2022-11-18T00:36:55.508Z,8.14
2022-11-18T00:39:26.237Z,8.15
2022-11-18T00:42:18.189Z,8.16
2022-11-18T00:44:46.280Z,8.17
2022-11-18T00:47:14.604Z,8.26
2022-11-18T00:49:42.718Z,8.27
2022-11-18T00:52:12.471Z,8.28
2022-11-18T00:54:40.996Z,8.29
2022-11-18T00:57:11.348Z,8.29
2022-11-18T00:59:39.734Z,8.32
2022-11-18T01:02:08.576Z,8.30
2022-11-18T01:04:41.202Z,8.29
2022-11-18T01:07:10.836Z,8.29
2022-11-18T01:09:39.803Z,8.30
2022-11-18T01:12:29.587Z,8.27
2022-11-18T01:14:59.866Z,8.26
2022-11-18T01:17:31.502Z,8.24
2022-11-18T01:20:00.184Z,8.26
2022-11-18T01:22:28.712Z,8.23
2022-11-18T01:24:57.871Z,8.26
2022-11-18T01:27:32.115Z,8.28
2022-11-18T01:30:04.229Z,8.27
2022-11-18T01:32:32.735Z,8.27
2022-11-18T01:35:01.925Z,8.31
2022-11-18T01:37:30.790Z,8.33
2022-11-18T01:40:00.590Z,8.37
2022-11-18T01:42:30.516Z,8.32
2022-11-18T01:45:02.440Z,8.30
2022-11-18T01:47:37.076Z,8.29
2022-11-18T01:50:07.726Z,8.29
2022-11-18T01:52:38.272Z,8.28
2022-11-18T01:55:12.357Z,8.32
2022-11-18T01:57:45.456Z,8.33
2022-11-18T02:00:16.172Z,8.33
2022-11-18T02:02:44.581Z,8.29
2022-11-18T02:05:13.542Z,8.29
2022-11-18T02:07:44.549Z,8.28
2022-11-18T02:10:21.246Z,8.28
2022-11-18T02:12:51.443Z,8.29
2022-11-18T02:15:26.875Z,8.29
2022-11-18T02:18:04.502Z,8.28
2022-11-18T02:20:35.954Z,8.28
2022-11-18T02:24:04.852Z,8.28
2022-11-18T02:27:09.092Z,8.31
2022-11-18T02:29:46.704Z,8.31
2022-11-18T02:32:20.268Z,8.31
2022-11-18T02:34:52.275Z,8.30
2022-11-18T02:37:28.615Z,8.32
2022-11-18T02:40:01.577Z,8.31
2022-11-18T02:42:34.438Z,8.32
2022-11-18T02:45:10.845Z,8.31
2022-11-18T02:47:40.823Z,8.31
2022-11-18T02:50:13.149Z,8.32
2022-11-18T02:52:44.353Z,8.30
2022-11-18T02:55:15.477Z,8.31
2022-11-18T02:57:49.198Z,8.29
2022-11-18T03:00:19.637Z,8.27
2022-11-18T03:02:49.876Z,8.28
2022-11-18T03:05:25.050Z,8.25
2022-11-18T03:07:57.594Z,8.25
2022-11-18T03:10:41.648Z,8.29
2022-11-18T03:13:19.004Z,8.31
2022-11-18T03:15:59.271Z,8.32
2022-11-18T03:18:33.330Z,8.33
2022-11-18T03:21:09.249Z,8.34
2022-11-18T03:23:42.387Z,8.35
2022-11-18T03:26:15.246Z,8.36
2022-11-18T03:28:48.481Z,8.38
2022-11-18T03:31:25.386Z,8.40
2022-11-18T03:33:59.585Z,8.40
2022-11-18T03:36:34.935Z,8.43
2022-11-18T03:39:07.511Z,8.43
2022-11-18T03:41:41.398Z,8.43
2022-11-18T03:44:15.454Z,8.42
2022-11-18T03:46:48.337Z,8.43
2022-11-18T03:49:23.029Z,8.44
2022-11-18T03:51:55.443Z,8.44
2022-11-18T03:54:29.036Z,8.45
2022-11-18T03:57:02.729Z,8.47
2022-11-18T03:59:37.476Z,8.45
2022-11-18T04:02:13.169Z,8.46
2022-11-18T04:04:43.405Z,8.47
2022-11-18T04:07:21.921Z,8.46
2022-11-18T04:10:00.901Z,8.47
2022-11-18T04:12:32.851Z,8.47
2022-11-18T04:15:01.174Z,8.51
2022-11-18T04:17:30.734Z,8.45
2022-11-18T04:19:58.985Z,8.44
2022-11-18T04:22:27.078Z,8.44
2022-11-18T04:24:55.950Z,8.42
2022-11-18T04:27:24.647Z,8.40
2022-11-18T04:29:53.235Z,8.41
2022-11-18T04:32:22.397Z,8.42
2022-11-18T04:34:51.929Z,8.51
2022-11-18T04:37:20.187Z,8.46
2022-11-18T04:39:48.701Z,8.43
2022-11-18T04:42:18.511Z,8.38
2022-11-18T04:44:48.027Z,8.33
2022-11-18T04:47:16.516Z,8.28
2022-11-18T04:49:45.044Z,8.25
2022-11-18T04:52:16.216Z,8.22
2022-11-18T04:54:45.009Z,8.19
2022-11-18T04:57:13.681Z,8.18
2022-11-18T04:59:45.703Z,8.17
2022-11-18T05:02:15.674Z,8.18
2022-11-18T05:04:45.079Z,8.21
2022-11-18T05:07:16.465Z,8.22
2022-11-18T05:09:45.168Z,8.28
2022-11-18T05:12:32.272Z,8.30
2022-11-18T05:15:00.558Z,8.31
2022-11-18T05:17:29.568Z,8.33
2022-11-18T05:19:58.661Z,8.34
2022-11-18T05:22:30.640Z,8.35
2022-11-18T05:24:58.920Z,8.36
2022-11-18T05:27:29.890Z,8.36
2022-11-18T05:29:58.392Z,8.36
2022-11-18T05:32:26.826Z,8.40
2022-11-18T05:34:55.409Z,8.42
2022-11-18T05:37:23.628Z,8.41
2022-11-18T05:39:53.404Z,8.46
2022-11-18T05:42:39.012Z,8.46
2022-11-18T05:45:08.825Z,8.63
2022-11-18T05:47:59.344Z,8.58
2022-11-18T05:50:27.426Z,8.52
2022-11-18T05:52:57.385Z,8.44
2022-11-18T05:55:30.797Z,8.42
2022-11-18T05:58:00.117Z,8.42
2022-11-18T06:00:29.581Z,8.36
2022-11-18T06:02:58.922Z,8.38
2022-11-18T06:05:27.618Z,8.43
2022-11-18T06:07:58.480Z,8.43
2022-11-18T06:10:35.156Z,8.36
2022-11-18T06:13:07.781Z,8.35
2022-11-18T06:15:40.159Z,8.26
2022-11-18T06:18:13.019Z,8.33
2022-11-18T06:20:42.901Z,8.25
2022-11-18T06:23:11.862Z,8.46
2022-11-18T06:25:43.138Z,8.34
2022-11-18T06:28:16.093Z,8.27
2022-11-18T06:30:44.621Z,8.19
2022-11-18T06:33:15.562Z,8.11
2022-11-18T06:35:45.887Z,8.12
2022-11-18T06:38:14.393Z,8.06
2022-11-18T06:40:44.833Z,8.10
2022-11-18T06:43:31.573Z,8.05
2022-11-18T06:46:19.366Z,8.02
2022-11-18T06:48:47.574Z,8.01
2022-11-18T06:51:15.917Z,8.05
2022-11-18T06:53:45.238Z,8.00
2022-11-18T06:56:16.835Z,7.98
2022-11-18T06:58:46.934Z,8.01
2022-11-18T07:01:17.137Z,7.95
2022-11-18T07:03:46.958Z,7.93
2022-11-18T07:06:16.252Z,8.01
2022-11-18T07:08:46.644Z,7.94
2022-11-18T07:11:18.618Z,7.90
2022-11-18T07:13:47.874Z,7.95
2022-11-18T07:16:20.063Z,7.95
2022-11-18T07:18:48.937Z,7.87
2022-11-18T07:21:19.845Z,7.81
2022-11-18T07:23:49.108Z,7.79
2022-11-18T07:26:19.180Z,7.81
2022-11-18T07:28:47.787Z,7.75
2022-11-18T07:31:18.281Z,7.73
2022-11-18T07:33:49.374Z,7.74
2022-11-18T07:36:23.440Z,7.70
2022-11-18T07:38:54.231Z,7.67
2022-11-18T07:41:28.385Z,7.73
2022-11-18T07:44:01.043Z,7.70
2022-11-18T07:46:33.118Z,7.71
2022-11-18T07:49:04.176Z,7.70
2022-11-18T07:51:37.774Z,7.68
2022-11-18T07:54:08.771Z,7.74
2022-11-18T07:56:38.593Z,7.85
2022-11-18T07:59:06.990Z,7.77
2022-11-18T08:01:35.220Z,7.78
2022-11-18T08:04:09.081Z,7.76
2022-11-18T08:06:38.560Z,7.76
2022-11-18T08:09:11.440Z,7.74
2022-11-18T08:11:43.167Z,7.83
2022-11-18T08:14:11.547Z,7.88
2022-11-18T08:16:41.355Z,7.95
2022-11-18T08:19:09.900Z,7.89
2022-11-18T08:21:40.744Z,7.95
2022-11-18T08:24:12.274Z,7.96
2022-11-18T08:26:40.620Z,7.99
2022-11-18T08:29:10.668Z,8.10
2022-11-18T08:31:39.458Z,7.98
2022-11-18T08:34:08.784Z,8.04
2022-11-18T08:36:39.985Z,8.01
2022-11-18T08:39:10.136Z,8.10
2022-11-18T08:41:40.687Z,8.04
2022-11-18T08:44:14.327Z,8.06
2022-11-18T08:46:46.071Z,8.13
2022-11-18T08:49:15.622Z,8.19
2022-11-18T08:51:45.908Z,8.20
2022-11-18T08:54:14.697Z,8.33
2022-11-18T08:56:43.434Z,8.37
2022-11-18T08:59:14.663Z,8.43
2022-11-18T09:01:43.907Z,8.40
2022-11-18T09:04:12.616Z,8.34
2022-11-18T09:06:41.248Z,8.45
2022-11-18T09:09:13.353Z,8.47
2022-11-18T09:11:43.326Z,8.49
2022-11-18T09:17:03.357Z,8.35
2022-11-18T09:19:48.336Z,8.51
2022-11-18T09:22:16.803Z,8.56
2022-11-18T09:24:45.006Z,8.52
2022-11-18T09:27:17.113Z,8.55
2022-11-18T09:29:58.741Z,8.55
2022-11-18T09:32:27.626Z,8.55
2022-11-18T09:34:57.322Z,8.53
2022-11-18T09:37:27.036Z,8.66
2022-11-18T09:39:56.200Z,8.60
2022-11-18T09:42:37.508Z,8.91
2022-11-18T09:45:24.309Z,9.15
2022-11-18T09:47:58.333Z,9.47
2022-11-18T09:53:21.356Z,9.38
2022-11-18T09:55:52.173Z,9.63
2022-11-18T09:58:33.625Z,9.83
2022-11-18T10:01:04.936Z,9.81
2022-11-18T10:03:37.400Z,9.70
2022-11-18T10:06:23.542Z,9.78
2022-11-18T10:09:06.993Z,9.83
2022-11-18T10:11:43.364Z,9.66
2022-11-18T10:14:27.118Z,9.58
2022-11-18T10:17:07.179Z,9.40
2022-11-18T10:19:46.788Z,9.19
2022-11-18T10:22:24.799Z,9.18
2022-11-18T10:24:56.041Z,9.33
2022-11-18T10:27:27.595Z,9.22
2022-11-18T10:29:59.398Z,9.13
2022-11-18T10:32:33.789Z,9.28
2022-11-18T10:35:03.726Z,9.19
2022-11-18T10:38:05.700Z,9.40
2022-11-18T10:40:28.570Z,9.54
2022-11-18T10:43:06.664Z,9.67
2022-11-18T10:45:40.876Z,9.77
2022-11-18T10:48:22.177Z,9.78
2022-11-18T10:50:56.037Z,9.91
2022-11-18T10:53:50.405Z,10.01
2022-11-18T10:56:18.851Z,10.21
2022-11-18T10:58:52.736Z,10.22
2022-11-18T11:01:23.766Z,10.10
2022-11-18T11:04:03.070Z,9.82
2022-11-18T11:06:38.840Z,9.87
2022-11-18T11:09:10.057Z,9.93
2022-11-18T11:11:44.017Z,9.80
2022-11-18T11:14:20.953Z,9.87
2022-11-18T11:16:58.738Z,10.02
2022-11-18T11:19:37.994Z,10.10
2022-11-18T11:22:11.210Z,10.02
2022-11-18T11:24:40.074Z,10.05
2022-11-18T11:30:21.588Z,9.75
2022-11-18T11:33:23.485Z,9.78
2022-11-18T11:36:07.133Z,9.75
2022-11-18T11:38:51.238Z,9.76
2022-11-18T11:41:24.395Z,9.82
2022-11-18T11:44:11.964Z,9.99
2022-11-18T11:51:01.958Z,10.13
2022-11-18T11:54:09.060Z,10.37
2022-11-18T11:56:46.804Z,10.54
2022-11-18T11:59:26.489Z,10.71
2022-11-18T12:02:34.157Z,10.60
2022-11-18T12:05:12.732Z,10.74
2022-11-18T12:07:46.611Z,10.69
2022-11-18T12:10:45.206Z,10.95
2022-11-18T12:13:33.651Z,10.77
2022-11-18T12:16:13.842Z,10.65
2022-11-18T12:18:50.251Z,10.62
2022-11-18T12:21:53.662Z,10.57
2022-11-18T12:24:34.561Z,10.58
2022-11-18T12:27:13.231Z,10.62
2022-11-18T12:29:55.110Z,10.80
2022-11-18T12:32:34.658Z,10.60
2022-11-18T12:35:09.017Z,10.58
2022-11-18T12:37:59.699Z,10.49
2022-11-18T12:40:37.860Z,10.49
2022-11-18T12:43:30.526Z,10.25
2022-11-18T12:46:01.467Z,10.06
2022-11-18T12:48:36.344Z,10.06
2022-11-18T12:51:27.444Z,9.94
2022-11-18T12:53:55.720Z,9.75
2022-11-18T12:56:27.471Z,9.81
2022-11-18T12:59:00.002Z,9.82
2022-11-18T13:01:32.875Z,10.02
2022-11-18T13:04:08.915Z,10.24
2022-11-18T13:06:39.524Z,10.49
2022-11-18T13:09:17.141Z,10.80
2022-11-18T13:11:53.089Z,11.12
2022-11-18T13:14:44.614Z,11.22
2022-11-18T13:17:46.896Z,11.59
2022-11-18T13:20:35.473Z,11.60
2022-11-18T13:23:44.822Z,11.84
2022-11-18T13:26:18.585Z,11.84
2022-11-18T13:29:06.895Z,11.53
2022-11-18T13:31:44.847Z,11.78
2022-11-18T13:34:19.864Z,11.88
2022-11-18T13:36:52.025Z,11.87
2022-11-18T13:39:24.245Z,11.55
2022-11-18T13:42:02.062Z,11.21
2022-11-18T13:44:34.500Z,11.06
2022-11-18T13:47:12.813Z,10.87
2022-11-18T13:49:54.176Z,10.86
2022-11-18T13:52:28.570Z,10.63
2022-11-18T13:55:00.058Z,10.36
2022-11-18T13:57:30.515Z,10.07
2022-11-18T14:00:05.431Z,9.86
2022-11-18T14:02:46.474Z,9.61
2022-11-18T14:05:21.890Z,9.43
2022-11-18T14:08:06.142Z,9.40
2022-11-18T14:10:42.131Z,9.38
2022-11-18T14:13:25.861Z,9.40
2022-11-18T14:15:55.801Z,9.44
2022-11-18T14:18:34.841Z,9.37
2022-11-18T14:21:05.632Z,9.32
2022-11-18T14:23:37.719Z,9.30
2022-11-18T14:26:08.181Z,9.25
2022-11-18T14:28:37.853Z,9.24
2022-11-18T14:31:07.402Z,9.28
2022-11-18T14:33:38.586Z,9.32
2022-11-18T14:36:15.240Z,9.32
2022-11-18T14:39:04.523Z,9.32
2022-11-18T14:41:50.554Z,9.22
2022-11-18T14:44:21.461Z,9.17
2022-11-18T14:46:55.499Z,9.09
2022-11-18T14:49:27.731Z,8.99
2022-11-18T14:51:58.611Z,8.91
2022-11-18T14:54:30.750Z,8.81
2022-11-18T14:57:02.078Z,8.74
2022-11-18T14:59:31.000Z,8.64
2022-11-18T15:02:03.640Z,8.59
2022-11-18T15:04:33.903Z,8.63
2022-11-18T15:07:04.842Z,8.58
2022-11-18T15:09:35.983Z,8.52
2022-11-18T15:12:06.325Z,8.47
2022-11-18T15:14:35.687Z,8.38
2022-11-18T15:17:05.363Z,8.33
2022-11-18T15:19:38.167Z,8.26
2022-11-18T15:22:07.646Z,8.14
2022-11-18T15:24:36.056Z,8.03
2022-11-18T15:27:05.547Z,8.05
2022-11-18T15:29:33.844Z,7.90
2022-11-18T15:36:13.300Z,7.63
2022-11-18T15:38:42.155Z,7.51
2022-11-18T15:41:16.137Z,7.41
2022-11-18T15:43:44.472Z,7.30
2022-11-18T15:46:13.355Z,7.24
2022-11-18T15:48:41.893Z,7.16
2022-11-18T15:51:12.285Z,7.07
2022-11-18T15:53:41.272Z,7.00
2022-11-18T15:56:17.126Z,6.96
2022-11-18T15:58:45.499Z,6.92
2022-11-18T16:01:13.739Z,6.95
2022-11-18T16:03:42.591Z,6.97
2022-11-18T16:06:15.424Z,7.04
2022-11-18T16:08:44.482Z,7.10
2022-11-18T16:11:31.560Z,7.11
2022-11-18T16:14:03.815Z,7.16
2022-11-18T16:16:34.229Z,7.16
2022-11-18T16:19:06.221Z,7.17
2022-11-18T16:21:39.000Z,7.18
2022-11-18T16:24:11.645Z,7.16
2022-11-18T16:26:42.107Z,7.17
2022-11-18T16:29:12.430Z,7.20
2022-11-18T16:31:41.957Z,7.19
2022-11-18T16:34:11.681Z,7.19
2022-11-18T16:36:45.011Z,7.20
2022-11-18T16:39:16.014Z,7.18
2022-11-18T16:41:45.780Z,7.17
2022-11-18T16:44:17.646Z,7.11
2022-11-18T16:46:48.669Z,7.08
2022-11-18T16:49:19.657Z,7.05
2022-11-18T16:51:55.023Z,7.02
2022-11-18T16:54:27.306Z,7.00
2022-11-18T16:56:57.335Z,6.97
2022-11-18T16:59:29.144Z,6.93
2022-11-18T17:01:59.793Z,6.94
2022-11-18T17:04:29.628Z,6.93
2022-11-18T17:07:00.691Z,6.97
2022-11-18T17:09:29.726Z,6.96
2022-11-18T17:12:03.262Z,6.95
2022-11-18T17:14:33.993Z,6.92
2022-11-18T17:17:03.072Z,6.86
2022-11-18T17:19:31.554Z,6.81
2022-11-18T17:22:04.234Z,6.80
2022-11-18T17:24:33.020Z,6.79
2022-11-18T17:27:05.124Z,6.81
2022-11-18T17:29:35.058Z,6.79
2022-11-18T17:32:03.727Z,6.76
2022-11-18T17:34:37.232Z,6.75
2022-11-18T17:37:07.395Z,6.73
2022-11-18T17:39:38.426Z,6.71
2022-11-18T17:42:17.776Z,6.69
2022-11-18T17:44:46.658Z,6.65
2022-11-18T17:47:14.861Z,6.72
2022-11-18T17:49:44.762Z,6.81
2022-11-18T17:52:15.814Z,6.78
2022-11-18T17:54:43.907Z,6.68
2022-11-18T17:57:12.357Z,6.63
2022-11-18T17:59:40.522Z,6.54
2022-11-18T18:02:14.973Z,6.44
2022-11-18T18:04:43.136Z,6.35
2022-11-18T18:07:11.839Z,6.27
2022-11-18T18:09:41.632Z,6.22
2022-11-18T18:12:24.672Z,6.22
2022-11-18T18:14:52.876Z,6.32
2022-11-18T18:17:23.386Z,6.34
2022-11-18T18:19:52.913Z,6.37
2022-11-18T18:22:21.309Z,6.40
2022-11-18T18:24:51.254Z,6.46
2022-11-18T18:27:20.694Z,6.49
2022-11-18T18:29:49.156Z,6.55
2022-11-18T18:32:18.799Z,6.55
2022-11-18T18:34:50.576Z,6.56
2022-11-18T18:37:23.146Z,6.61
2022-11-18T18:39:54.779Z,6.58
2022-11-18T18:42:24.949Z,6.58
2022-11-18T18:45:14.580Z,6.59
2022-11-18T18:47:43.879Z,6.64
2022-11-18T18:50:12.589Z,6.63
2022-11-18T18:52:41.154Z,6.64
2022-11-18T18:55:11.175Z,6.65
2022-11-18T18:57:39.851Z,6.64
2022-11-18T19:00:10.565Z,6.64
2022-11-18T19:02:40.098Z,6.64
2022-11-18T19:05:12.288Z,6.65
2022-11-18T19:07:42.839Z,6.64
2022-11-18T19:10:13.858Z,6.62
2022-11-18T19:12:49.513Z,6.62
2022-11-18T19:15:19.978Z,6.60
2022-11-18T19:17:49.086Z,6.61
2022-11-18T19:20:38.421Z,6.58
2022-11-18T19:23:10.470Z,6.55
2022-11-18T19:25:40.323Z,6.56
2022-11-18T19:28:11.335Z,6.51
2022-11-18T19:30:39.683Z,6.52
2022-11-18T19:33:08.079Z,6.51
2022-11-18T19:35:39.933Z,6.50
2022-11-18T19:38:08.055Z,6.53
2022-11-18T19:40:36.716Z,6.57
2022-11-18T19:43:06.812Z,6.63
2022-11-18T19:45:35.085Z,6.75
2022-11-18T19:48:05.282Z,6.77
2022-11-18T19:50:33.655Z,6.81
2022-11-18T19:53:25.626Z,6.84
2022-11-18T19:55:55.471Z,6.89
2022-11-18T19:58:25.814Z,6.92
2022-11-18T20:00:54.656Z,6.94
2022-11-18T20:03:23.476Z,6.98
2022-11-18T20:05:55.462Z,7.02
2022-11-18T20:08:25.867Z,7.04
2022-11-18T20:10:54.959Z,7.05
2022-11-18T20:13:23.577Z,7.08
2022-11-18T20:15:53.642Z,7.09
2022-11-18T20:18:25.229Z,7.11
2022-11-18T20:20:53.858Z,7.14
2022-11-18T20:23:22.731Z,7.14
2022-11-18T20:25:50.920Z,7.14
2022-11-18T20:28:24.032Z,7.16
2022-11-18T20:30:59.650Z,7.16
2022-11-18T20:33:28.434Z,7.16
2022-11-18T20:35:57.185Z,7.16
2022-11-18T20:38:25.731Z,7.21
2022-11-18T20:40:53.908Z,7.21
2022-11-18T20:43:22.094Z,7.22
2022-11-18T20:45:55.963Z,7.22
2022-11-18T20:48:24.540Z,7.33
2022-11-18T20:50:52.757Z,7.26
2022-11-18T20:53:22.289Z,7.24
2022-11-18T20:55:50.910Z,7.23
2022-11-18T20:58:20.485Z,7.23
2022-11-18T21:00:49.084Z,7.24
2022-11-18T21:03:21.178Z,7.22
2022-11-18T21:05:50.019Z,7.22
2022-11-18T21:08:19.340Z,7.23
2022-11-18T21:10:55.612Z,7.20
2022-11-18T21:13:41.514Z,7.21
2022-11-18T21:16:09.926Z,7.19
2022-11-18T21:18:40.490Z,7.20
2022-11-18T21:21:26.670Z,7.22
2022-11-18T21:23:56.729Z,7.20
2022-11-18T21:26:26.657Z,7.21
2022-11-18T21:28:58.398Z,7.19
2022-11-18T21:31:27.497Z,7.20
2022-11-18T21:33:59.072Z,7.19
2022-11-18T21:36:29.608Z,7.19
2022-11-18T21:38:59.215Z,7.20
2022-11-18T21:41:29.737Z,7.22
2022-11-18T21:44:05.385Z,7.20
2022-11-18T21:46:35.077Z,7.20
2022-11-18T21:49:19.868Z,7.21
2022-11-18T21:51:48.196Z,7.19
2022-11-18T21:54:18.244Z,7.19
2022-11-18T21:56:48.564Z,7.14
2022-11-18T21:59:18.046Z,7.09
2022-11-18T22:01:47.032Z,7.08
2022-11-18T22:04:30.816Z,7.07
2022-11-18T22:06:59.371Z,7.01
2022-11-18T22:09:32.859Z,6.99
2022-11-18T22:12:07.715Z,6.95
2022-11-18T22:14:36.628Z,6.94
2022-11-18T22:17:05.623Z,6.95
2022-11-18T22:19:35.865Z,6.96
2022-11-18T22:22:09.030Z,6.97
2022-11-18T22:24:44.983Z,6.98
2022-11-18T22:27:13.172Z,6.98
2022-11-18T22:29:42.737Z,7.01
2022-11-18T22:32:11.149Z,6.99
2022-11-18T22:34:45.911Z,6.93
2022-11-18T22:37:18.894Z,6.93
2022-11-18T22:39:47.828Z,6.93
2022-11-18T22:42:36.584Z,6.88
2022-11-18T22:45:05.068Z,6.82
2022-11-18T22:47:36.943Z,6.81
2022-11-18T22:50:11.225Z,6.78
2022-11-18T22:52:48.195Z,6.75
2022-11-18T22:55:16.487Z,6.74
2022-11-18T22:57:46.222Z,6.75
2022-11-18T23:00:19.125Z,6.76
2022-11-18T23:02:49.942Z,6.78
2022-11-18T23:05:19.641Z,6.79
2022-11-18T23:07:49.487Z,6.79
2022-11-18T23:10:20.238Z,6.83
2022-11-18T23:13:08.425Z,6.86
2022-11-18T23:15:39.437Z,6.91
2022-11-18T23:18:11.823Z,6.95
2022-11-18T23:20:43.962Z,6.98
2022-11-18T23:23:12.347Z,6.99
2022-11-18T23:25:41.012Z,7.01
2022-11-18T23:28:11.777Z,7.04
2022-11-18T23:30:41.677Z,7.04
2022-11-18T23:33:10.859Z,7.06
2022-11-18T23:35:39.779Z,7.08
2022-11-18T23:38:09.294Z,7.11
2022-11-18T23:40:42.001Z,7.13
2022-11-18T23:43:10.259Z,7.16
2022-11-18T23:45:38.672Z,7.18
2022-11-18T23:48:07.233Z,7.21
2022-11-18T23:50:40.060Z,7.24
2022-11-18T23:53:17.007Z,7.24
2022-11-18T23:55:46.553Z,7.25
2022-11-18T23:58:17.648Z,7.26
